Terminal Aerodrome Forecast
Issued by NWS

Home | Current Version | Previous Version | Text Only | Print | Product List | Glossary On
Versions: 1 2 3 4 5 6 7 8 9 10 11 12
000
FTAK31 PAJN 072333
TAFAPG
TAF
PAPG 072333Z 0800/0824 00000KT P6SM BKN200
     FM081500 00000KT P6SM VCFG SKC
     FM081900 VRB03KT P6SM SKC
      AMD LTD TO CLD VIS AND WIND 0806/0815=

USA.gov is the U.S. government's official web portal to all federal, state and local government web resources and services.